Time;durP1;ratioP1;P1;durP2;ratioP2;P2;SDS_P1;SDS_P2;PMS_P1;PMS_P2;Temp;Humidity;BMP_temperature;BMP_pressure;BME280_temperature;BME280_humidity;BME280_pressure;Samples;Min_cycle;Max_cycle;Signal;HPM_P1;HPM_P2
2022/03/05 00:00:08;;;;;;;50.03;16.05;;;-2.40;99.90;;;;;;5058385;28;20020;-73
2022/03/05 00:02:36;;;;;;;33.22;12.57;;;-2.40;99.90;;;;;;5075713;28;20074;-73
2022/03/05 00:05:03;;;;;;;41.42;15.02;;;-2.40;99.90;;;;;;5058162;28;20024;-73
2022/03/05 00:07:32;;;;;;;33.63;13.13;;;-2.40;99.90;;;;;;5076785;28;20030;-73
2022/03/05 00:09:59;;;;;;;33.38;13.63;;;-2.40;99.90;;;;;;5076017;28;20027;-73
2022/03/05 00:12:26;;;;;;;36.90;13.82;;;-2.50;99.90;;;;;;5076029;28;20025;-73
2022/03/05 00:14:54;;;;;;;36.63;12.57;;;-2.50;99.90;;;;;;5063615;28;20054;-73
2022/03/05 00:17:22;;;;;;;35.10;11.95;;;-2.50;99.90;;;;;;5096917;28;20021;-73
2022/03/05 00:19:50;;;;;;;29.58;10.80;;;-2.50;99.90;;;;;;5096674;28;20020;-73
2022/03/05 00:22:18;;;;;;;27.10;10.65;;;-2.50;99.90;;;;;;5097058;28;20048;-73
2022/03/05 00:24:45;;;;;;;30.83;11.88;;;-2.60;99.90;;;;;;5095974;28;20032;-73
2022/03/05 00:27:13;;;;;;;26.20;10.23;;;-2.60;99.90;;;;;;5096018;28;20020;-73
2022/03/05 00:29:41;;;;;;;43.85;13.55;;;-2.60;99.90;;;;;;5097428;28;20051;-73
2022/03/05 00:32:08;;;;;;;32.90;12.23;;;-2.60;99.90;;;;;;5095909;28;20031;-73
2022/03/05 00:34:35;;;;;;;35.70;12.27;;;-2.70;99.90;;;;;;5096928;28;20023;-73
2022/03/05 00:37:05;;;;;;;35.85;11.63;;;-2.70;99.90;;;;;;5079182;28;20437;-73
2022/03/05 00:39:33;;;;;;;28.10;10.07;;;-2.70;99.90;;;;;;5098553;28;20024;-73
2022/03/05 00:42:00;;;;;;;30.40;10.95;;;-2.70;99.90;;;;;;5098800;28;20031;-73
2022/03/05 00:44:28;;;;;;;32.78;11.48;;;-2.80;99.90;;;;;;5098820;28;20024;-73
2022/03/05 00:46:56;;;;;;;32.00;9.93;;;-2.80;99.90;;;;;;5099459;28;20031;-73
2022/03/05 00:49:24;;;;;;;27.38;10.15;;;-2.80;99.90;;;;;;5098989;28;20021;-73
2022/03/05 00:51:52;;;;;;;29.77;10.60;;;-2.80;99.90;;;;;;5099516;28;20088;-73
2022/03/05 00:54:23;;;;;;;29.10;10.85;;;-2.90;99.90;;;;;;5098210;28;20024;-73
2022/03/05 00:56:51;;;;;;;23.73;8.70;;;-2.90;99.90;;;;;;5098232;28;20444;-73
2022/03/05 00:59:19;;;;;;;30.70;10.45;;;-2.90;99.90;;;;;;5099795;28;20028;-73
2022/03/05 01:01:46;;;;;;;27.25;9.88;;;-3.00;99.90;;;;;;5098199;28;20557;-73
2022/03/05 01:04:13;;;;;;;36.70;12.32;;;-3.00;99.90;;;;;;5099611;28;20020;-73
2022/03/05 01:06:41;;;;;;;28.75;10.52;;;-3.00;99.90;;;;;;5098929;28;20027;-74
2022/03/05 01:09:08;;;;;;;30.50;10.45;;;-3.00;99.90;;;;;;5100272;28;20413;-73
2022/03/05 01:11:37;;;;;;;27.25;9.60;;;-3.10;99.90;;;;;;5100127;28;20024;-73
2022/03/05 01:14:05;;;;;;;26.38;9.20;;;-3.10;99.90;;;;;;5100663;28;20107;-73
2022/03/05 01:16:34;;;;;;;29.92;10.18;;;-3.10;99.90;;;;;;5098498;28;20054;-74
2022/03/05 01:19:02;;;;;;;22.50;8.70;;;-3.10;99.90;;;;;;5099802;28;20012;-73
2022/03/05 01:21:29;;;;;;;24.48;9.40;;;-3.10;99.90;;;;;;5099923;28;20035;-73
2022/03/05 01:23:57;;;;;;;28.77;9.68;;;-3.10;99.90;;;;;;5099325;28;20020;-73
2022/03/05 01:26:27;;;;;;;24.95;9.27;;;-3.20;99.90;;;;;;5099228;28;20027;-73
2022/03/05 01:28:55;;;;;;;26.92;10.00;;;-3.20;99.90;;;;;;5098685;28;20020;-73
2022/03/05 01:31:23;;;;;;;33.58;11.25;;;-3.20;99.90;;;;;;5097714;28;20328;-73
2022/03/05 01:33:50;;;;;;;28.05;10.82;;;-3.20;99.90;;;;;;5097503;28;20028;-73
2022/03/05 01:36:17;;;;;;;28.42;10.68;;;-3.20;99.90;;;;;;5097507;28;20028;-73
2022/03/05 01:38:45;;;;;;;29.17;10.82;;;-3.20;99.90;;;;;;5097388;28;20483;-73
2022/03/05 01:41:13;;;;;;;28.42;10.43;;;-3.20;99.90;;;;;;5098635;28;20024;-73
2022/03/05 01:43:40;;;;;;;28.42;9.88;;;-3.20;99.90;;;;;;5098961;28;20065;-73
2022/03/05 01:46:08;;;;;;;32.47;10.77;;;-3.20;99.90;;;;;;5098277;28;20016;-73
2022/03/05 01:48:35;;;;;;;28.70;10.13;;;-3.20;99.90;;;;;;5099294;28;20435;-73
2022/03/05 01:51:02;;;;;;;24.65;8.98;;;-3.30;99.90;;;;;;5099062;28;20023;-73
2022/03/05 01:53:29;;;;;;;27.15;8.82;;;-3.30;99.90;;;;;;5099105;28;20439;-73
2022/03/05 01:55:57;;;;;;;29.48;10.05;;;-3.30;99.90;;;;;;5099975;28;20028;-73
2022/03/05 01:58:24;;;;;;;36.08;10.40;;;-3.30;99.90;;;;;;5097955;28;20031;-73
2022/03/05 02:00:51;;;;;;;25.73;10.45;;;-3.30;99.90;;;;;;5098072;28;20024;-73
2022/03/05 02:03:19;;;;;;;32.60;10.10;;;-3.30;99.90;;;;;;5099177;28;20028;-73
2022/03/05 02:05:46;;;;;;;29.65;10.32;;;-3.30;99.90;;;;;;5099202;28;20020;-73
2022/03/05 02:08:14;;;;;;;35.30;10.50;;;-3.30;99.90;;;;;;5096784;28;20111;-73
2022/03/05 02:10:42;;;;;;;29.88;10.38;;;-3.30;99.90;;;;;;5097858;28;20475;-73
2022/03/05 02:13:09;;;;;;;30.02;10.13;;;-3.30;99.90;;;;;;5097678;28;20104;-73
2022/03/05 02:15:38;;;;;;;26.38;8.85;;;-3.30;99.90;;;;;;5096420;28;20048;-73
2022/03/05 02:18:06;;;;;;;30.45;10.25;;;-3.30;99.90;;;;;;5097693;28;20049;-73
2022/03/05 02:20:33;;;;;;;23.80;9.05;;;-3.40;99.90;;;;;;5097843;28;20024;-73
2022/03/05 02:23:00;;;;;;;28.98;9.00;;;-3.30;99.90;;;;;;5097612;28;20024;-73
2022/03/05 02:25:28;;;;;;;21.58;7.78;;;-3.30;99.90;;;;;;5097581;28;20484;-73
2022/03/05 02:27:57;;;;;;;22.65;7.82;;;-3.30;99.90;;;;;;5098115;28;20028;-73
2022/03/05 02:30:25;;;;;;;24.40;8.18;;;-3.40;99.90;;;;;;5099611;28;20039;-73
2022/03/05 02:32:52;;;;;;;21.00;8.13;;;-3.40;99.90;;;;;;5098923;28;20048;-73
2022/03/05 02:35:19;;;;;;;22.30;7.82;;;-3.40;99.90;;;;;;5098369;28;20028;-73
2022/03/05 02:37:47;;;;;;;23.00;9.20;;;-3.40;99.90;;;;;;5098302;28;20020;-73
2022/03/05 02:40:15;;;;;;;23.38;8.75;;;-3.40;99.90;;;;;;5097252;28;20051;-73
2022/03/05 02:42:42;;;;;;;23.98;8.95;;;-3.40;99.90;;;;;;5098716;28;20035;-73
2022/03/05 02:45:09;;;;;;;22.75;9.50;;;-3.40;99.90;;;;;;5096912;28;20024;-73
2022/03/05 02:47:37;;;;;;;23.35;7.22;;;-3.40;99.90;;;;;;5097102;28;20078;-73
2022/03/05 02:50:05;;;;;;;18.75;8.20;;;-3.30;99.90;;;;;;5096369;28;20024;-73
2022/03/05 02:52:32;;;;;;;27.42;9.38;;;-3.40;99.90;;;;;;5096215;28;20328;-73
2022/03/05 02:54:59;;;;;;;19.92;7.60;;;-3.40;99.90;;;;;;5097007;28;20062;-73
2022/03/05 02:57:26;;;;;;;20.70;8.35;;;-3.30;99.90;;;;;;5096007;28;20024;-73
2022/03/05 02:59:54;;;;;;;25.58;8.32;;;-3.40;99.90;;;;;;5095845;28;20024;-73
2022/03/05 03:02:21;;;;;;;25.60;9.88;;;-3.30;99.90;;;;;;5097237;28;20020;-73
2022/03/05 03:04:48;;;;;;;31.92;9.10;;;-3.40;99.90;;;;;;5096958;28;20020;-73
2022/03/05 03:07:16;;;;;;;21.75;8.00;;;-3.40;99.90;;;;;;5096800;28;20422;-73
2022/03/05 03:09:43;;;;;;;27.00;8.15;;;-3.40;99.90;;;;;;5097400;28;20054;-73
2022/03/05 03:12:10;;;;;;;28.15;8.88;;;-3.40;99.90;;;;;;5096282;28;20484;-73
2022/03/05 03:14:37;;;;;;;26.70;8.43;;;-3.40;99.90;;;;;;5096112;28;20020;-73
2022/03/05 03:17:04;;;;;;;20.27;7.97;;;-3.40;99.90;;;;;;5078232;28;20034;-73
2022/03/05 03:19:31;;;;;;;23.55;7.95;;;-3.30;99.90;;;;;;5077458;28;20067;-73
2022/03/05 03:21:59;;;;;;;19.73;6.93;;;-3.40;99.90;;;;;;5059695;28;20372;-73
2022/03/05 03:24:27;;;;;;;21.13;7.78;;;-3.40;99.90;;;;;;5077674;28;20025;-73
2022/03/05 03:26:54;;;;;;;23.17;7.75;;;-3.40;99.90;;;;;;5077521;28;20053;-73
2022/03/05 03:29:21;;;;;;;26.77;8.43;;;-3.40;99.90;;;;;;5077386;28;20424;-73
2022/03/05 03:31:49;;;;;;;21.52;7.78;;;-3.40;99.90;;;;;;5076557;28;20082;-73
2022/03/05 03:34:16;;;;;;;22.83;7.65;;;-3.40;99.90;;;;;;5076395;28;20025;-73
2022/03/05 03:36:43;;;;;;;24.45;8.07;;;-3.40;99.90;;;;;;5058708;28;20028;-73
2022/03/05 03:39:11;;;;;;;27.45;8.32;;;-3.50;99.90;;;;;;5076573;28;20021;-73
2022/03/05 03:41:38;;;;;;;23.77;7.95;;;-3.50;99.90;;;;;;5076342;28;20020;-73
2022/03/05 03:44:06;;;;;;;22.92;8.63;;;-3.50;99.90;;;;;;5058470;28;20306;-73
2022/03/05 03:46:34;;;;;;;20.95;7.72;;;-3.50;99.90;;;;;;5076301;28;20025;-73
2022/03/05 03:49:01;;;;;;;18.02;7.13;;;-3.50;99.90;;;;;;5058437;28;20020;-73
2022/03/05 03:51:29;;;;;;;22.65;7.97;;;-3.40;99.90;;;;;;5058464;28;20024;-73
2022/03/05 03:53:56;;;;;;;31.35;8.18;;;-3.50;99.90;;;;;;5076987;28;20057;-73
2022/03/05 03:56:24;;;;;;;24.00;8.93;;;-3.40;99.90;;;;;;5059441;28;20317;-73
2022/03/05 03:58:51;;;;;;;20.73;7.75;;;-3.40;99.90;;;;;;5059231;28;20028;-73
2022/03/05 04:01:19;;;;;;;20.23;7.20;;;-3.40;99.90;;;;;;5059247;28;20154;-73
2022/03/05 04:03:47;;;;;;;21.75;7.65;;;-3.40;99.90;;;;;;5077025;28;20025;-73
2022/03/05 04:06:14;;;;;;;24.95;8.25;;;-3.50;99.90;;;;;;5077650;28;20021;-73
2022/03/05 04:08:41;;;;;;;23.02;6.97;;;-3.50;99.90;;;;;;5059141;28;20020;-73
2022/03/05 04:11:14;;;;;;;19.85;6.55;;;-3.40;99.90;;;;;;5059213;28;20074;-73
2022/03/05 04:13:43;;;;;;;25.60;8.35;;;-3.50;99.90;;;;;;5077232;28;20016;-73
2022/03/05 04:16:11;;;;;;;26.80;7.65;;;-3.50;99.90;;;;;;5079752;28;20101;-73
2022/03/05 04:18:38;;;;;;;23.42;8.38;;;-3.50;99.90;;;;;;5079027;28;20029;-73
2022/03/05 04:21:07;;;;;;;23.50;8.00;;;-3.50;99.90;;;;;;5080256;28;20439;-73
2022/03/05 04:23:35;;;;;;;22.52;7.10;;;-3.50;99.90;;;;;;5080145;28;20034;-73
2022/03/05 04:26:02;;;;;;;23.75;7.45;;;-3.50;99.90;;;;;;5080231;28;20017;-73
2022/03/05 04:28:29;;;;;;;23.42;8.43;;;-3.60;99.90;;;;;;5080470;28;20085;-73
2022/03/05 04:30:56;;;;;;;21.83;8.05;;;-3.60;99.90;;;;;;5079398;28;20324;-73
2022/03/05 04:33:24;;;;;;;19.45;6.40;;;-3.60;99.90;;;;;;5079963;28;20074;-73
2022/03/05 04:35:51;;;;;;;24.02;9.10;;;-3.60;99.90;;;;;;5079813;28;20021;-73
2022/03/05 04:38:19;;;;;;;23.77;8.30;;;-3.60;99.90;;;;;;5080844;28;20029;-73
2022/03/05 04:40:47;;;;;;;21.83;7.82;;;-3.60;99.90;;;;;;5062537;28;20024;-73
2022/03/05 04:43:15;;;;;;;22.25;7.72;;;-3.50;99.90;;;;;;5080717;28;20022;-73
2022/03/05 04:45:42;;;;;;;26.67;9.15;;;-3.50;99.90;;;;;;5080762;28;20093;-73
2022/03/05 04:48:10;;;;;;;26.80;8.25;;;-3.60;99.90;;;;;;5080657;28;20397;-73
2022/03/05 04:50:37;;;;;;;25.73;8.48;;;-3.50;99.90;;;;;;5080693;28;20091;-73
2022/03/05 04:53:04;;;;;;;21.25;8.18;;;-3.60;99.90;;;;;;5080011;28;20039;-73
2022/03/05 04:55:32;;;;;;;28.50;8.95;;;-3.50;99.90;;;;;;5062294;28;20025;-73
2022/03/05 04:57:59;;;;;;;29.48;8.90;;;-3.50;99.90;;;;;;5079583;28;20024;-73
2022/03/05 05:00:27;;;;;;;23.75;8.18;;;-3.50;99.90;;;;;;5079522;28;20025;-73
2022/03/05 05:02:54;;;;;;;23.88;9.20;;;-3.50;99.90;;;;;;5062020;28;20114;-73
2022/03/05 05:05:22;;;;;;;24.60;8.57;;;-3.50;99.90;;;;;;5078971;28;20052;-73
2022/03/05 05:07:49;;;;;;;25.35;8.07;;;-3.60;99.90;;;;;;5061069;28;20108;-73
2022/03/05 05:10:17;;;;;;;29.20;8.70;;;-3.60;99.90;;;;;;5079373;28;20028;-73
2022/03/05 05:12:44;;;;;;;27.23;8.57;;;-3.60;99.90;;;;;;5061002;28;20056;-73
2022/03/05 05:15:12;;;;;;;23.60;7.68;;;-3.60;99.90;;;;;;5078628;28;20060;-73
2022/03/05 05:17:40;;;;;;;28.95;8.27;;;-3.60;99.90;;;;;;5078937;28;20077;-73
2022/03/05 05:20:09;;;;;;;28.98;8.38;;;-3.50;99.90;;;;;;5079648;28;20362;-73
2022/03/05 05:22:36;;;;;;;26.80;9.07;;;-3.50;99.90;;;;;;5079568;28;20432;-73
2022/03/05 05:25:05;;;;;;;21.27;7.85;;;-3.50;99.90;;;;;;5079509;28;20452;-73
2022/03/05 05:27:37;;;;;;;19.00;7.72;;;-3.60;99.90;;;;;;5079430;28;20024;-73
2022/03/05 05:30:06;;;;;;;25.05;8.27;;;-3.60;99.90;;;;;;5079703;28;20017;-73
2022/03/05 05:32:33;;;;;;;21.40;8.73;;;-3.60;99.90;;;;;;5079521;28;20016;-73
2022/03/05 05:35:01;;;;;;;23.70;7.60;;;-3.60;99.90;;;;;;5061494;28;20024;-72
2022/03/05 05:37:28;;;;;;;26.40;9.60;;;-3.70;99.90;;;;;;5079300;28;20020;-72
2022/03/05 05:39:56;;;;;;;26.13;9.15;;;-3.70;99.90;;;;;;5060655;28;20024;-73
2022/03/05 05:42:23;;;;;;;33.38;10.48;;;-3.70;99.90;;;;;;5078845;28;20024;-73
2022/03/05 05:44:51;;;;;;;40.90;13.60;;;-3.70;99.90;;;;;;5060341;28;20059;-73
2022/03/05 05:47:18;;;;;;;31.88;11.70;;;-3.60;99.90;;;;;;5060332;28;20324;-72
2022/03/05 05:49:46;;;;;;;28.77;10.60;;;-3.60;99.90;;;;;;5060275;28;20047;-72
2022/03/05 05:52:13;;;;;;;32.42;10.85;;;-3.40;99.90;;;;;;5078186;28;20016;-73
2022/03/05 05:54:41;;;;;;;41.42;12.25;;;-3.30;99.90;;;;;;5077922;28;20013;-73
2022/03/05 05:57:08;;;;;;;42.97;12.75;;;-3.10;99.90;;;;;;5078460;28;20025;-73
2022/03/05 05:59:35;;;;;;;42.75;13.85;;;-3.00;99.90;;;;;;5078027;28;20404;-72
2022/03/05 06:02:03;;;;;;;34.85;10.93;;;-2.90;99.90;;;;;;5078340;28;20050;-73
2022/03/05 06:04:31;;;;;;;39.08;11.77;;;-2.80;99.90;;;;;;5078918;28;20024;-73
2022/03/05 06:06:58;;;;;;;37.63;12.73;;;-2.60;99.90;;;;;;5060816;28;20035;-72
2022/03/05 06:09:26;;;;;;;38.33;12.77;;;-2.60;99.90;;;;;;5078728;28;20023;-72
2022/03/05 06:11:54;;;;;;;32.65;11.30;;;-2.50;99.90;;;;;;5078632;28;20294;-73
2022/03/05 06:14:21;;;;;;;39.22;12.27;;;-2.40;99.90;;;;;;5078438;28;20095;-73
2022/03/05 06:16:49;;;;;;;36.15;13.13;;;-2.30;99.90;;;;;;5078280;28;20048;-72
2022/03/05 06:19:16;;;;;;;34.53;11.05;;;-2.30;99.90;;;;;;5060630;28;20115;-73
2022/03/05 06:21:43;;;;;;;31.85;11.35;;;-2.20;99.90;;;;;;5061148;28;20021;-74
2022/03/05 06:24:11;;;;;;;32.72;12.18;;;-2.10;99.90;;;;;;5060381;28;20024;-73
2022/03/05 06:26:38;;;;;;;31.80;12.13;;;-2.10;99.90;;;;;;5077229;28;20029;-73
2022/03/05 06:29:06;;;;;;;31.30;11.48;;;-2.00;99.90;;;;;;5077460;28;20016;-73
2022/03/05 06:31:33;;;;;;;34.90;11.15;;;-1.90;99.90;;;;;;5059405;28;20040;-73
2022/03/05 06:34:01;;;;;;;33.00;11.05;;;-1.90;99.90;;;;;;5077653;28;20096;-73
2022/03/05 06:36:28;;;;;;;32.85;12.48;;;-1.90;99.90;;;;;;5058608;28;20029;-73
2022/03/05 06:38:56;;;;;;;34.83;13.45;;;-1.80;99.90;;;;;;5059418;28;20024;-72
2022/03/05 06:41:23;;;;;;;39.25;11.45;;;-1.80;99.90;;;;;;5077420;28;20363;-73
2022/03/05 06:43:51;;;;;;;35.95;12.70;;;-1.70;99.90;;;;;;5077472;28;20020;-73
2022/03/05 06:46:19;;;;;;;29.35;12.68;;;-1.70;99.90;;;;;;5077767;28;20440;-73
2022/03/05 06:48:46;;;;;;;29.52;11.30;;;-1.60;99.90;;;;;;5078133;28;20024;-73
2022/03/05 06:51:14;;;;;;;26.85;9.80;;;-1.60;99.90;;;;;;5077892;28;20082;-73
2022/03/05 06:53:42;;;;;;;27.40;11.00;;;-1.50;99.90;;;;;;5077736;28;20070;-73
2022/03/05 06:56:09;;;;;;;33.10;11.00;;;-1.50;99.90;;;;;;5078481;28;20459;-73
2022/03/05 06:58:36;;;;;;;29.70;10.00;;;-1.50;99.90;;;;;;5077643;28;20021;-73
2022/03/05 07:01:03;;;;;;;25.77;8.82;;;-1.50;99.90;;;;;;5077768;28;20025;-73
2022/03/05 07:03:31;;;;;;;31.15;10.52;;;-1.40;99.90;;;;;;5077408;28;20321;-71
2022/03/05 07:05:59;;;;;;;34.45;11.82;;;-1.40;99.90;;;;;;5058818;28;20027;-72
2022/03/05 07:08:26;;;;;;;27.95;10.27;;;-1.30;99.90;;;;;;5076670;28;20012;-72
2022/03/05 07:10:53;;;;;;;31.25;10.02;;;-1.30;99.90;;;;;;5059346;28;20134;-71
2022/03/05 07:13:21;;;;;;;32.60;12.10;;;-1.30;99.90;;;;;;5058692;28;20029;-71
2022/03/05 07:15:49;;;;;;;29.60;10.80;;;-1.30;99.90;;;;;;5076700;28;20059;-72
2022/03/05 07:18:18;;;;;;;30.10;10.38;;;-1.20;99.90;;;;;;5076543;28;20355;-73
2022/03/05 07:20:46;;;;;;;30.88;11.52;;;-1.20;99.90;;;;;;5077249;28;20290;-71
2022/03/05 07:23:14;;;;;;;29.05;11.75;;;-1.20;99.90;;;;;;5058645;28;20029;-71
2022/03/05 07:25:43;;;;;;;27.77;11.18;;;-1.20;99.90;;;;;;5076958;28;20056;-72
2022/03/05 07:28:12;;;;;;;33.55;11.70;;;-1.20;99.90;;;;;;5077234;28;20473;-71
2022/03/05 07:30:40;;;;;;;32.78;10.23;;;-1.20;99.90;;;;;;5077467;28;20051;-71
2022/03/05 07:33:08;;;;;;;30.70;11.45;;;-1.10;99.90;;;;;;5059494;28;20028;-71
2022/03/05 07:35:36;;;;;;;135.82;34.42;;;-1.10;99.90;;;;;;5077350;28;20021;-72
2022/03/05 07:38:03;;;;;;;43.15;13.23;;;-1.10;99.90;;;;;;5077543;28;20048;-73
2022/03/05 07:40:31;;;;;;;49.35;16.10;;;-1.00;99.90;;;;;;5077501;28;20317;-73
2022/03/05 07:42:58;;;;;;;31.33;10.93;;;-1.00;99.90;;;;;;5059672;28;20361;-73
2022/03/05 07:45:26;;;;;;;25.08;10.80;;;-1.00;99.90;;;;;;5077322;28;20443;-73
2022/03/05 07:47:53;;;;;;;33.03;12.18;;;-0.90;99.90;;;;;;5059113;28;20328;-74
2022/03/05 07:50:21;;;;;;;30.05;10.82;;;-0.80;99.90;;;;;;5080537;28;20025;-69
2022/03/05 07:52:49;;;;;;;28.35;11.80;;;-0.80;99.90;;;;;;5080264;28;20024;-69
2022/03/05 07:55:17;;;;;;;31.98;12.13;;;-0.80;99.90;;;;;;5080236;28;20103;-68
2022/03/05 07:57:44;;;;;;;25.60;10.68;;;-0.70;99.90;;;;;;5080865;28;20021;-69
2022/03/05 08:00:12;;;;;;;27.55;10.93;;;-0.70;99.90;;;;;;5062247;28;20021;-69
2022/03/05 08:02:39;;;;;;;29.13;10.43;;;-0.70;99.90;;;;;;5080396;28;20426;-69
2022/03/05 08:05:08;;;;;;;28.63;12.30;;;-0.60;99.90;;;;;;5080294;28;20027;-70
2022/03/05 08:07:35;;;;;;;28.50;10.48;;;-0.60;99.90;;;;;;5080063;28;20020;-69
2022/03/05 08:10:07;;;;;;;27.35;11.18;;;-0.60;99.90;;;;;;5081073;28;20108;-69
2022/03/05 08:12:36;;;;;;;31.27;12.00;;;-0.50;99.90;;;;;;5080500;28;20029;-69
2022/03/05 08:15:11;;;;;;;30.52;10.27;;;-0.50;99.90;;;;;;5069268;28;20436;-69
2022/03/05 08:17:49;;;;;;;28.80;11.85;;;-0.40;99.90;;;;;;5101205;28;20443;-68
2022/03/05 08:20:21;;;;;;;23.88;10.48;;;-0.30;99.90;;;;;;5100884;28;20332;-69
2022/03/05 08:22:50;;;;;;;25.42;9.93;;;-0.30;99.90;;;;;;5100929;28;20016;-70
2022/03/05 08:25:18;;;;;;;24.63;9.98;;;-0.20;99.90;;;;;;5100786;28;20055;-69
2022/03/05 08:27:45;;;;;;;26.83;10.50;;;-0.10;99.90;;;;;;5101150;28;20012;-70
2022/03/05 08:30:13;;;;;;;30.35;10.30;;;-0.10;99.90;;;;;;5099990;28;20020;-69
2022/03/05 08:32:42;;;;;;;25.58;10.68;;;0.00;99.90;;;;;;5099856;28;20069;-69
2022/03/05 08:35:10;;;;;;;30.35;12.18;;;0.10;99.90;;;;;;5098619;28;20048;-69
2022/03/05 08:37:39;;;;;;;28.48;10.48;;;0.20;99.90;;;;;;5100165;28;20020;-68
2022/03/05 08:40:09;;;;;;;23.95;9.27;;;0.30;99.90;;;;;;5100184;28;20016;-68
2022/03/05 08:42:36;;;;;;;27.70;10.88;;;0.30;99.90;;;;;;5098570;28;20024;-68
2022/03/05 08:45:05;;;;;;;30.25;11.93;;;0.40;99.90;;;;;;5099520;28;20057;-68
2022/03/05 08:47:33;;;;;;;27.90;11.32;;;0.50;99.90;;;;;;5098464;28;20020;-69
2022/03/05 08:50:01;;;;;;;25.52;10.35;;;0.50;99.90;;;;;;5098274;28;20020;-68
2022/03/05 08:52:32;;;;;;;30.55;11.60;;;0.60;99.90;;;;;;5098761;28;20024;-69
2022/03/05 08:55:00;;;;;;;25.98;10.80;;;0.60;99.90;;;;;;5100592;28;20020;-68
2022/03/05 08:57:28;;;;;;;23.70;11.07;;;0.70;99.90;;;;;;5100389;28;20027;-69
2022/03/05 08:59:56;;;;;;;27.88;11.85;;;0.80;99.90;;;;;;5099291;28;20316;-69
2022/03/05 09:02:24;;;;;;;25.58;9.52;;;0.90;99.90;;;;;;5100754;28;20026;-70
2022/03/05 09:04:53;;;;;;;27.48;10.35;;;0.90;99.90;;;;;;5100103;28;20493;-69
2022/03/05 09:07:20;;;;;;;27.95;11.23;;;1.00;99.90;;;;;;5100726;28;20411;-70
2022/03/05 09:09:47;;;;;;;25.40;9.93;;;1.00;99.90;;;;;;5100049;28;20044;-70
2022/03/05 09:12:15;;;;;;;23.55;11.10;;;1.10;99.90;;;;;;5098592;28;20027;-69
2022/03/05 09:14:43;;;;;;;23.33;9.95;;;1.10;99.90;;;;;;5096828;28;20020;-70
2022/03/05 09:17:10;;;;;;;25.38;10.35;;;1.20;99.90;;;;;;5061739;28;20440;-70
2022/03/05 09:19:37;;;;;;;27.52;10.20;;;1.30;99.90;;;;;;5060798;28;20094;-70
2022/03/05 09:22:07;;;;;;;24.38;9.07;;;1.30;99.90;;;;;;5079194;28;20020;-70
2022/03/05 09:24:34;;;;;;;24.63;10.57;;;1.40;99.90;;;;;;5078479;28;20028;-70
2022/03/05 09:27:02;;;;;;;20.70;8.25;;;1.50;99.90;;;;;;5079176;28;20408;-70
2022/03/05 09:29:31;;;;;;;27.67;11.68;;;1.50;99.90;;;;;;5078940;28;20028;-70
2022/03/05 09:31:59;;;;;;;25.40;9.98;;;1.60;99.90;;;;;;5078341;28;20029;-72
2022/03/05 09:34:26;;;;;;;26.20;10.13;;;1.60;99.90;;;;;;5078999;28;20036;-69
2022/03/05 09:36:54;;;;;;;23.77;10.35;;;1.70;99.90;;;;;;5079160;28;20024;-69
2022/03/05 09:39:21;;;;;;;23.20;9.52;;;1.80;99.90;;;;;;5079839;28;20028;-69
2022/03/05 09:41:49;;;;;;;26.27;11.15;;;1.80;99.90;;;;;;5079054;28;20032;-69
2022/03/05 09:44:16;;;;;;;28.80;10.80;;;1.80;99.90;;;;;;5079622;28;20428;-69
2022/03/05 09:46:44;;;;;;;25.02;9.43;;;1.90;99.90;;;;;;5061063;28;20437;-70
2022/03/05 09:49:13;;;;;;;22.63;9.93;;;2.00;99.90;;;;;;5079380;28;20020;-70
2022/03/05 09:51:40;;;;;;;28.90;11.05;;;2.10;99.90;;;;;;5061230;28;20036;-71
2022/03/05 09:54:07;;;;;;;23.70;10.00;;;2.10;99.90;;;;;;5078881;28;20031;-70
2022/03/05 09:56:36;;;;;;;21.05;10.23;;;2.20;99.90;;;;;;5078502;28;20290;-70
2022/03/05 09:59:03;;;;;;;27.17;10.27;;;2.20;99.90;;;;;;5077777;28;20048;-70
2022/03/05 10:01:32;;;;;;;22.80;9.68;;;2.30;99.90;;;;;;5060153;28;20062;-70
2022/03/05 10:04:02;;;;;;;22.52;10.65;;;2.40;99.90;;;;;;5059859;28;20428;-71
2022/03/05 10:06:30;;;;;;;22.95;10.23;;;2.40;99.90;;;;;;5077636;28;20575;-71
2022/03/05 10:08:58;;;;;;;25.05;9.13;;;2.50;99.90;;;;;;5077563;28;20020;-73
2022/03/05 10:11:38;;;;;;;24.00;9.75;;;2.50;99.90;;;;;;5077722;28;20024;-74
2022/03/05 10:14:19;;;;;;;24.90;9.73;;;2.60;99.90;;;;;;5059788;28;20372;-73
2022/03/05 10:16:46;;;;;;;23.73;10.63;;;2.60;99.90;;;;;;5079954;28;20044;-74
2022/03/05 10:19:23;;;;;;;25.92;9.02;;;2.70;99.90;;;;;;5060548;28;20102;-71
2022/03/05 10:22:04;;;;;;;24.98;10.10;;;2.70;99.90;;;;;;5060709;28;20024;-70
2022/03/05 10:24:41;;;;;;;21.65;9.35;;;2.80;99.90;;;;;;5078466;28;20027;-74
2022/03/05 10:27:09;;;;;;;23.17;10.20;;;2.80;99.90;;;;;;5078666;28;20056;-74
2022/03/05 10:29:39;;;;;;;26.30;11.15;;;2.90;99.90;;;;;;5078075;28;20103;-72
2022/03/05 10:32:09;;;;;;;25.02;10.90;;;2.90;99.90;;;;;;5060914;28;20017;-72
2022/03/05 10:34:49;;;;;;;21.90;10.27;;;3.00;99.90;;;;;;5078053;28;20316;-71
2022/03/05 10:37:18;;;;;;;26.42;11.10;;;3.10;99.90;;;;;;5076932;28;20039;-70
2022/03/05 10:39:46;;;;;;;21.58;9.82;;;3.10;99.90;;;;;;5059333;28;20024;-70
2022/03/05 10:42:19;;;;;;;21.63;9.77;;;3.20;99.90;;;;;;5059419;28;20020;-71
2022/03/05 10:45:02;;;;;;;25.17;10.23;;;3.20;99.90;;;;;;5076940;28;20032;-72
2022/03/05 10:47:47;;;;;;;24.58;10.48;;;3.20;99.90;;;;;;5077313;28;20107;-72
2022/03/05 10:50:25;;;;;;;21.17;9.15;;;3.20;99.90;;;;;;5059164;28;20055;-72
2022/03/05 10:52:56;;;;;;;24.98;10.48;;;3.30;99.90;;;;;;5059104;28;20032;-72
2022/03/05 10:55:27;;;;;;;22.33;10.48;;;3.40;99.90;;;;;;5077103;28;20099;-72
2022/03/05 10:58:04;;;;;;;25.17;10.18;;;3.50;99.90;;;;;;5077704;28;20031;-72
2022/03/05 11:00:32;;;;;;;23.55;11.25;;;3.50;99.90;;;;;;5078328;28;20404;-71
2022/03/05 11:03:03;;;;;;;25.35;10.40;;;3.60;99.90;;;;;;5078304;28;20289;-71
2022/03/05 11:05:30;;;;;;;20.48;10.00;;;3.70;99.90;;;;;;5078157;28;20021;-71
2022/03/05 11:07:58;;;;;;;21.05;9.15;;;3.80;99.90;;;;;;5077924;28;20016;-72
2022/03/05 11:10:29;;;;;;;21.63;9.15;;;3.80;99.90;;;;;;5059724;28;20447;-71
2022/03/05 11:13:03;;;;;;;26.02;11.00;;;3.90;99.90;;;;;;5077636;28;20021;-71
2022/03/05 11:15:31;;;;;;;32.55;12.98;;;4.00;99.90;;;;;;5077950;28;20402;-71
2022/03/05 11:17:59;;;;;;;26.92;10.98;;;4.10;99.90;;;;;;5077016;28;20025;-71
2022/03/05 11:20:27;;;;;;;20.92;10.93;;;4.20;99.90;;;;;;5058799;28;20119;-71
2022/03/05 11:22:55;;;;;;;23.00;10.00;;;4.20;99.90;;;;;;5076150;28;20032;-71
2022/03/05 11:25:31;;;;;;;26.95;10.05;;;4.20;99.90;;;;;;5077006;28;20017;-72
2022/03/05 11:28:00;;;;;;;21.33;9.77;;;4.30;99.90;;;;;;5076403;28;20104;-71
2022/03/05 11:30:40;;;;;;;18.67;9.00;;;4.30;99.90;;;;;;5076604;28;20321;-72
2022/03/05 11:33:23;;;;;;;25.80;12.25;;;4.20;99.90;;;;;;5077030;28;20082;-72
2022/03/05 11:36:03;;;;;;;20.30;9.77;;;4.30;99.90;;;;;;5076518;28;20028;-72
2022/03/05 11:38:38;;;;;;;22.83;9.35;;;4.50;99.90;;;;;;5076681;28;20056;-72
2022/03/05 11:41:21;;;;;;;22.58;10.43;;;4.60;99.90;;;;;;5077240;28;20017;-72
2022/03/05 11:43:49;;;;;;;23.42;10.52;;;4.60;99.90;;;;;;5077812;28;20039;-73
2022/03/05 11:46:31;;;;;;;18.02;8.75;;;4.70;99.90;;;;;;5077269;28;20024;-74
2022/03/05 11:49:06;;;;;;;19.45;9.05;;;4.70;99.90;;;;;;5077243;28;20020;-73
2022/03/05 11:51:35;;;;;;;19.80;8.67;;;4.80;99.90;;;;;;5078017;28;20360;-73
2022/03/05 11:54:20;;;;;;;18.67;8.80;;;5.10;99.90;;;;;;5076991;28;20251;-72
2022/03/05 11:57:13;;;;;;;17.60;9.43;;;5.40;99.90;;;;;;5077128;28;20021;-70
2022/03/05 11:59:43;;;;;;;18.52;8.60;;;5.60;99.90;;;;;;5076820;28;20021;-70
2022/03/05 12:02:10;;;;;;;19.35;9.07;;;5.70;99.90;;;;;;5058343;28;20032;-70
2022/03/05 12:04:49;;;;;;;22.88;9.13;;;5.80;99.90;;;;;;5076061;28;20103;-70
2022/03/05 12:07:22;;;;;;;18.35;8.85;;;5.80;99.90;;;;;;5075945;28;20024;-70
2022/03/05 12:10:04;;;;;;;28.30;11.25;;;6.00;99.90;;;;;;5076624;28;20021;-70
2022/03/05 12:12:58;;;;;;;20.70;9.07;;;6.10;99.90;;;;;;5076080;28;20097;-70
2022/03/05 12:15:28;;;;;;;18.60;9.05;;;6.30;98.90;;;;;;5076024;28;20052;-70
2022/03/05 12:17:55;;;;;;;18.73;8.50;;;6.40;98.10;;;;;;5076025;28;20028;-70
2022/03/05 12:20:29;;;;;;;18.60;9.25;;;6.60;97.80;;;;;;5076419;28;20024;-70
2022/03/05 12:23:05;;;;;;;17.10;8.40;;;6.70;97.00;;;;;;5076512;28;20024;-70
2022/03/05 12:25:34;;;;;;;18.15;7.90;;;6.70;95.50;;;;;;5077082;28;20095;-70
2022/03/05 12:28:04;;;;;;;19.70;8.77;;;6.90;94.20;;;;;;5076733;28;20016;-70
2022/03/05 12:30:35;;;;;;;16.60;8.38;;;6.90;93.20;;;;;;5077002;28;20035;-70
2022/03/05 12:33:17;;;;;;;16.02;8.25;;;6.90;92.90;;;;;;5076764;28;20020;-70
2022/03/05 12:35:48;;;;;;;16.90;9.07;;;6.90;92.90;;;;;;5078579;28;20356;-70
2022/03/05 12:38:21;;;;;;;20.70;9.05;;;6.90;92.50;;;;;;5062545;28;20024;-70
2022/03/05 12:40:49;;;;;;;16.65;7.78;;;6.90;92.60;;;;;;5062642;28;20028;-70
2022/03/05 12:43:16;;;;;;;14.52;7.30;;;6.90;92.30;;;;;;5079338;28;20035;-70